Time;durP1;ratioP1;P1;durP2;ratioP2;P2;SDS_P1;SDS_P2;PMS_P1;PMS_P2;Temp;Humidity;BMP_temperature;BMP_pressure;BME280_temperature;BME280_humidity;BME280_pressure;Samples;Min_cycle;Max_cycle;Signal;HPM_P1;HPM_P2
2022/08/25 00:01:21;;;;;;;6.23;4.27;;;23.50;85.80;;;;;;4995775;28;20441;-67
2022/08/25 00:03:49;;;;;;;6.70;4.73;;;23.40;86.00;;;;;;5005533;28;20499;-67
2022/08/25 00:06:19;;;;;;;6.43;5.70;;;23.40;86.40;;;;;;4998423;28;20434;-67
2022/08/25 00:08:47;;;;;;;7.63;5.40;;;23.40;86.90;;;;;;4995410;28;20589;-68
2022/08/25 00:11:16;;;;;;;7.67;5.70;;;23.30;87.10;;;;;;4989871;28;20915;-69
2022/08/25 00:13:48;;;;;;;12.13;7.00;;;23.30;88.00;;;;;;4988806;28;20466;-67
2022/08/25 00:16:17;;;;;;;8.10;6.10;;;23.20;87.80;;;;;;4999639;28;20519;-67
2022/08/25 00:18:47;;;;;;;8.27;5.47;;;23.20;88.20;;;;;;4992583;28;20436;-68
2022/08/25 00:21:15;;;;;;;10.23;5.83;;;23.20;88.60;;;;;;5002570;28;21635;-67
2022/08/25 00:23:44;;;;;;;6.50;5.00;;;23.10;89.00;;;;;;4993101;28;20880;-67
2022/08/25 00:26:11;;;;;;;5.70;5.10;;;23.10;89.40;;;;;;5008395;28;20520;-68
2022/08/25 00:28:38;;;;;;;6.93;5.00;;;22.90;89.80;;;;;;4995834;28;20468;-68
2022/08/25 00:31:10;;;;;;;11.50;4.23;;;22.90;90.20;;;;;;5009676;28;20455;-69
2022/08/25 00:33:37;;;;;;;5.20;4.70;;;22.80;90.50;;;;;;5004341;28;20555;-67
2022/08/25 00:36:05;;;;;;;6.47;3.70;;;22.80;90.70;;;;;;4998415;28;21027;-68
2022/08/25 00:38:32;;;;;;;5.03;4.40;;;22.70;90.90;;;;;;5003033;28;20436;-68
2022/08/25 00:41:06;;;;;;;6.30;4.30;;;22.50;91.20;;;;;;5000328;28;20448;-68
2022/08/25 00:43:36;;;;;;;5.73;4.37;;;22.50;91.30;;;;;;4996492;28;20468;-68
2022/08/25 00:46:06;;;;;;;4.93;4.13;;;22.40;91.70;;;;;;4992660;28;20448;-68
2022/08/25 00:48:33;;;;;;;5.03;4.40;;;22.40;91.90;;;;;;4995145;28;20860;-70
2022/08/25 00:51:01;;;;;;;5.90;4.40;;;22.30;92.10;;;;;;4999903;28;20439;-67
2022/08/25 00:53:29;;;;;;;4.73;3.90;;;22.20;92.50;;;;;;4996652;28;20526;-69
2022/08/25 00:55:57;;;;;;;4.93;4.43;;;22.10;92.80;;;;;;4995851;28;20652;-67
2022/08/25 00:58:29;;;;;;;10.37;5.37;;;22.00;92.90;;;;;;4996237;28;20446;-67
2022/08/25 01:00:58;;;;;;;5.70;4.47;;;22.00;93.10;;;;;;4983949;28;20534;-69
2022/08/25 01:03:29;;;;;;;6.67;4.93;;;21.80;93.50;;;;;;5003699;28;20470;-67
2022/08/25 01:05:58;;;;;;;6.00;4.90;;;21.70;93.90;;;;;;4997720;28;20452;-67
2022/08/25 01:08:28;;;;;;;5.83;5.00;;;21.70;94.30;;;;;;4998263;28;20962;-68
2022/08/25 01:10:58;;;;;;;5.60;3.97;;;21.60;94.60;;;;;;5007623;28;20506;-68
2022/08/25 01:13:30;;;;;;;7.07;4.53;;;21.50;95.00;;;;;;4992067;28;20462;-67
2022/08/25 01:15:58;;;;;;;7.20;5.10;;;21.40;95.20;;;;;;4979847;28;20440;-68
2022/08/25 01:18:27;;;;;;;5.20;4.60;;;21.40;95.40;;;;;;4988181;28;20445;-69
2022/08/25 01:20:56;;;;;;;5.23;4.77;;;21.40;95.40;;;;;;4992849;28;20483;-68
2022/08/25 01:23:25;;;;;;;5.30;4.80;;;21.40;95.70;;;;;;4989239;28;20496;-67
2022/08/25 01:26:18;;;;;;;7.50;5.67;;;21.40;95.90;;;;;;5005144;28;20446;-67
2022/08/25 01:29:24;;;;;;;5.47;4.93;;;21.30;96.10;;;;;;4990468;28;20537;-67
2022/08/25 01:32:08;;;;;;;8.20;4.93;;;21.30;96.30;;;;;;4988204;28;20473;-69
2022/08/25 01:34:40;;;;;;;6.40;5.10;;;21.20;96.80;;;;;;4999970;28;20550;-68
2022/08/25 01:37:12;;;;;;;7.20;4.60;;;21.20;96.90;;;;;;5006391;28;20990;-68
2022/08/25 01:39:39;;;;;;;6.93;5.00;;;21.10;97.20;;;;;;5001400;28;20995;-69
2022/08/25 01:42:34;;;;;;;6.60;5.20;;;21.10;97.40;;;;;;5001852;28;20441;-68
2022/08/25 01:48:26;;;;;;;6.13;4.53;;;21.00;98.10;;;;;;4999682;28;20425;-68
2022/08/25 01:51:09;;;;;;;5.87;4.60;;;20.90;98.30;;;;;;4996778;28;20471;-68
2022/08/25 01:53:40;;;;;;;5.03;4.53;;;20.90;98.50;;;;;;5001523;28;20939;-68
2022/08/25 01:56:13;;;;;;;6.70;6.00;;;20.90;98.80;;;;;;5008052;28;20527;-70
2022/08/25 01:59:20;;;;;;;7.20;6.00;;;20.90;98.90;;;;;;5002318;28;20443;-70
2022/08/25 02:01:47;;;;;;;6.40;5.40;;;20.90;99.20;;;;;;5000090;28;20438;-69
2022/08/25 02:04:14;;;;;;;6.80;5.77;;;20.90;99.40;;;;;;4997349;28;20470;-69
2022/08/25 02:06:42;;;;;;;6.63;5.20;;;20.80;99.50;;;;;;5000826;28;20442;-69
2022/08/25 02:09:13;;;;;;;7.30;5.80;;;20.80;99.70;;;;;;4988813;28;20498;-69
2022/08/25 02:11:42;;;;;;;9.43;5.73;;;20.80;99.90;;;;;;5007973;28;20525;-69
2022/08/25 02:14:11;;;;;;;8.87;6.33;;;20.80;99.90;;;;;;5005403;28;20548;-69
2022/08/25 02:16:50;;;;;;;5.63;5.07;;;20.80;99.90;;;;;;5004580;28;20488;-69
2022/08/25 02:22:06;;;;;;;7.13;5.87;;;20.70;99.90;;;;;;4996193;28;20519;-68
2022/08/25 02:24:34;;;;;;;10.23;6.30;;;20.80;99.90;;;;;;4990559;28;20463;-68
2022/08/25 02:27:02;;;;;;;7.00;6.30;;;20.70;99.90;;;;;;5002209;28;20439;-68
2022/08/25 02:29:32;;;;;;;7.00;5.63;;;20.70;99.90;;;;;;5004388;28;20458;-68
2022/08/25 02:31:59;;;;;;;7.73;5.57;;;20.70;99.90;;;;;;5007553;28;20473;-68
2022/08/25 02:34:26;;;;;;;6.57;5.63;;;20.60;99.90;;;;;;4996065;28;20550;-68
2022/08/25 02:36:53;;;;;;;6.30;5.70;;;20.60;99.90;;;;;;4993365;28;20559;-70
2022/08/25 02:39:20;;;;;;;7.13;5.50;;;20.60;99.90;;;;;;4998321;28;20460;-68
2022/08/25 02:41:48;;;;;;;8.30;6.53;;;20.60;99.90;;;;;;5004645;28;20605;-69
2022/08/25 02:44:15;;;;;;;10.20;6.87;;;20.50;99.90;;;;;;5004613;28;20463;-69
2022/08/25 02:46:42;;;;;;;6.70;6.07;;;20.60;99.90;;;;;;5004175;28;20439;-68
2022/08/25 02:49:09;;;;;;;7.47;6.60;;;20.50;99.90;;;;;;4995315;28;20478;-70
2022/08/25 02:51:36;;;;;;;8.83;6.80;;;20.50;99.90;;;;;;4999909;28;20450;-69
2022/08/25 02:54:05;;;;;;;8.23;7.13;;;20.50;99.90;;;;;;5001922;28;20462;-69
2022/08/25 02:56:32;;;;;;;7.20;6.60;;;20.50;99.90;;;;;;5005628;28;20472;-70
2022/08/25 02:59:01;;;;;;;8.00;7.10;;;20.50;99.90;;;;;;4988747;28;20450;-68
2022/08/25 03:01:28;;;;;;;6.53;6.00;;;20.50;99.90;;;;;;5001782;28;20452;-69
2022/08/25 03:03:56;;;;;;;9.67;6.50;;;20.50;99.90;;;;;;4999663;28;21020;-69
2022/08/25 03:06:24;;;;;;;8.87;7.30;;;20.50;99.90;;;;;;4992485;28;20439;-70
2022/08/25 03:08:52;;;;;;;7.83;7.10;;;20.50;99.90;;;;;;5006148;28;20443;-70
2022/08/25 03:11:19;;;;;;;9.60;6.80;;;20.50;99.90;;;;;;4987172;28;20439;-68
2022/08/25 03:13:48;;;;;;;7.80;6.67;;;20.40;99.90;;;;;;5000730;28;20469;-69
2022/08/25 03:16:17;;;;;;;7.57;6.77;;;20.40;99.90;;;;;;4984085;28;20800;-70
2022/08/25 03:18:44;;;;;;;7.83;6.20;;;20.40;99.90;;;;;;4994965;28;20485;-70
2022/08/25 03:21:12;;;;;;;8.90;7.30;;;20.40;99.90;;;;;;5005994;28;20906;-69
2022/08/25 03:23:40;;;;;;;12.40;8.43;;;20.40;99.90;;;;;;4999286;28;20794;-69
2022/08/25 03:28:51;;;;;;;10.57;7.70;;;20.30;99.90;;;;;;5001602;28;20433;-69
2022/08/25 03:31:19;;;;;;;8.47;7.67;;;20.20;99.90;;;;;;5006028;28;20519;-70
2022/08/25 03:33:46;;;;;;;8.30;7.50;;;20.20;99.90;;;;;;5001301;28;20867;-70
2022/08/25 03:36:13;;;;;;;8.87;7.70;;;20.10;99.90;;;;;;4992201;28;20786;-70
2022/08/25 03:38:41;;;;;;;10.20;7.53;;;20.10;99.90;;;;;;5009923;28;20556;-69
2022/08/25 03:41:17;;;;;;;9.20;8.30;;;20.00;99.90;;;;;;4999968;28;20624;-70
2022/08/25 03:43:45;;;;;;;7.97;7.27;;;20.00;99.90;;;;;;4996011;28;20464;-70
2022/08/25 03:46:20;;;;;;;9.50;8.50;;;20.00;99.90;;;;;;5004210;28;20457;-70
2022/08/25 03:48:54;;;;;;;10.20;9.20;;;20.00;99.90;;;;;;5001855;28;20530;-70
2022/08/25 03:51:22;;;;;;;9.90;7.90;;;19.90;99.90;;;;;;5005410;28;20471;-73
2022/08/25 03:53:49;;;;;;;9.70;7.90;;;19.80;99.90;;;;;;4993276;28;20903;-73
2022/08/25 03:56:16;;;;;;;8.80;7.90;;;19.80;99.90;;;;;;4995917;28;20494;-72
2022/08/25 03:58:43;;;;;;;10.27;8.60;;;19.80;99.90;;;;;;4994432;28;20979;-72
2022/08/25 04:01:11;;;;;;;14.70;9.80;;;19.70;99.90;;;;;;5006195;28;20522;-72
2022/08/25 04:03:39;;;;;;;9.63;8.07;;;19.70;99.90;;;;;;5000707;28;20471;-73
2022/08/25 04:06:07;;;;;;;10.40;8.43;;;19.70;99.90;;;;;;5006647;28;20917;-72
2022/08/25 04:08:35;;;;;;;13.00;8.33;;;19.70;99.90;;;;;;5004130;28;20445;-73
2022/08/25 04:11:06;;;;;;;14.93;10.93;;;19.60;99.90;;;;;;5009939;28;20444;-72
2022/08/25 04:13:33;;;;;;;13.10;8.50;;;19.60;99.90;;;;;;5002836;28;20556;-73
2022/08/25 04:16:00;;;;;;;10.40;9.30;;;19.50;99.90;;;;;;4998665;28;20520;-73
2022/08/25 04:18:26;;;;;;;9.97;8.97;;;19.50;99.90;;;;;;5011900;28;20495;-72
2022/08/25 04:21:02;;;;;;;11.33;10.30;;;19.50;99.90;;;;;;5009373;28;20783;-72
2022/08/25 04:23:29;;;;;;;12.90;9.60;;;19.50;99.90;;;;;;4994430;28;20554;-73
2022/08/25 04:25:56;;;;;;;11.03;9.70;;;19.50;99.90;;;;;;5006724;28;20458;-73
2022/08/25 04:28:23;;;;;;;12.73;10.03;;;19.50;99.90;;;;;;5004261;28;20467;-72
2022/08/25 04:30:49;;;;;;;9.77;8.63;;;19.50;99.90;;;;;;5007313;28;20968;-72
2022/08/25 04:33:17;;;;;;;11.60;10.30;;;19.50;99.90;;;;;;5003246;28;20582;-73
2022/08/25 04:35:48;;;;;;;10.70;9.50;;;19.50;99.90;;;;;;4990792;28;20531;-73
2022/08/25 04:38:17;;;;;;;10.60;9.50;;;19.50;99.90;;;;;;5008483;28;20480;-73
2022/08/25 04:40:45;;;;;;;10.50;9.30;;;19.50;99.90;;;;;;4997502;28;20914;-71
2022/08/25 04:43:12;;;;;;;13.10;10.17;;;19.50;99.90;;;;;;4996254;28;20461;-71
2022/08/25 04:45:39;;;;;;;12.27;10.50;;;19.50;99.90;;;;;;4994152;28;20428;-70
2022/08/25 04:48:06;;;;;;;12.43;9.93;;;19.50;99.90;;;;;;4998136;28;20935;-69
2022/08/25 04:50:34;;;;;;;12.73;10.67;;;19.50;99.90;;;;;;4996859;28;20472;-70
2022/08/25 04:53:01;;;;;;;15.03;10.73;;;19.50;99.90;;;;;;4992756;28;20480;-70
2022/08/25 04:55:29;;;;;;;14.83;11.40;;;19.50;99.90;;;;;;4996973;28;20444;-70
2022/08/25 04:57:57;;;;;;;12.67;10.70;;;19.60;99.90;;;;;;4992176;28;20543;-70
2022/08/25 05:00:24;;;;;;;14.70;12.47;;;19.60;99.90;;;;;;5000311;28;20461;-69
2022/08/25 05:02:51;;;;;;;12.93;11.50;;;19.60;99.90;;;;;;4994474;28;20499;-68
2022/08/25 05:05:18;;;;;;;13.07;10.27;;;19.50;99.90;;;;;;4988656;28;20543;-69
2022/08/25 05:07:46;;;;;;;14.10;12.70;;;19.60;99.90;;;;;;4993803;28;20467;-69
2022/08/25 05:10:14;;;;;;;16.17;11.87;;;19.70;99.90;;;;;;4984825;28;20537;-70
2022/08/25 05:12:43;;;;;;;14.47;12.67;;;19.70;99.90;;;;;;4992583;28;20436;-71
2022/08/25 05:17:56;;;;;;;17.67;12.17;;;19.80;99.90;;;;;;5002363;28;20463;-71
2022/08/25 05:20:23;;;;;;;12.93;11.73;;;19.90;99.90;;;;;;4993592;28;20440;-71
2022/08/25 05:22:50;;;;;;;12.33;11.03;;;20.00;99.90;;;;;;5007476;28;20518;-71
2022/08/25 05:25:17;;;;;;;12.97;11.57;;;20.20;99.90;;;;;;4989919;28;20854;-73
2022/08/25 05:27:45;;;;;;;17.37;10.67;;;20.40;99.90;;;;;;4994167;28;20427;-71
2022/08/25 05:30:13;;;;;;;11.60;10.50;;;20.80;99.90;;;;;;4979677;28;20452;-71
2022/08/25 05:32:40;;;;;;;12.90;9.83;;;21.60;99.90;;;;;;5001894;28;20449;-73
2022/08/25 05:35:08;;;;;;;13.93;9.77;;;22.60;99.90;;;;;;5002635;28;20532;-73
2022/08/25 05:37:36;;;;;;;12.40;10.60;;;23.60;99.90;;;;;;4999016;28;20506;-71
2022/08/25 05:40:04;;;;;;;14.83;9.80;;;24.50;99.90;;;;;;4999509;28;20459;-72
2022/08/25 05:42:31;;;;;;;10.53;7.90;;;25.20;99.90;;;;;;4990639;28;20525;-71
2022/08/25 05:45:00;;;;;;;10.57;8.40;;;26.10;99.90;;;;;;5000671;28;20460;-73
2022/08/25 05:47:27;;;;;;;13.20;10.30;;;26.80;99.90;;;;;;4993868;28;20928;-70
2022/08/25 05:49:55;;;;;;;13.80;11.17;;;27.40;99.90;;;;;;5014865;28;20508;-73
2022/08/25 05:52:22;;;;;;;13.30;10.70;;;27.90;99.20;;;;;;4994635;28;20444;-73
2022/08/25 05:54:49;;;;;;;10.93;9.63;;;28.20;97.40;;;;;;4983708;28;20449;-72
2022/08/25 05:57:16;;;;;;;11.80;9.93;;;28.80;96.40;;;;;;4990855;28;20480;-72
2022/08/25 05:59:43;;;;;;;12.37;10.47;;;28.80;95.90;;;;;;5000603;28;20494;-70
2022/08/25 06:04:57;;;;;;;13.70;10.80;;;28.80;95.90;;;;;;4996106;28;20453;-71
2022/08/25 06:07:24;;;;;;;13.83;10.47;;;28.80;95.90;;;;;;5001185;28;20444;-71
2022/08/25 06:09:51;;;;;;;11.43;10.33;;;29.20;95.30;;;;;;4991605;28;20466;-72
2022/08/25 06:12:20;;;;;;;12.73;10.63;;;29.70;94.30;;;;;;5001286;28;20505;-72
2022/08/25 06:14:48;;;;;;;12.03;10.03;;;30.10;93.10;;;;;;4993300;28;20468;-74
2022/08/25 06:17:17;;;;;;;10.73;9.70;;;30.30;92.50;;;;;;5001384;28;20502;-72
2022/08/25 06:19:44;;;;;;;14.17;9.67;;;30.30;92.30;;;;;;5007406;28;20448;-71
2022/08/25 06:22:11;;;;;;;11.10;10.03;;;30.60;91.90;;;;;;4991502;28;20496;-72
2022/08/25 06:24:38;;;;;;;10.47;9.47;;;31.00;91.30;;;;;;4996107;28;20464;-72
2022/08/25 06:27:05;;;;;;;14.67;9.60;;;31.20;90.50;;;;;;5000565;28;20523;-73
2022/08/25 06:29:32;;;;;;;11.10;10.03;;;31.10;90.60;;;;;;4993747;28;20495;-72
2022/08/25 06:31:59;;;;;;;11.40;9.07;;;31.30;90.30;;;;;;4990520;28;20460;-74
2022/08/25 06:34:28;;;;;;;14.97;10.83;;;31.60;89.90;;;;;;4988679;28;21059;-72
2022/08/25 06:36:55;;;;;;;13.70;8.77;;;31.80;88.90;;;;;;4998034;28;20479;-72
2022/08/25 06:39:23;;;;;;;11.83;10.60;;;32.20;88.00;;;;;;4993676;28;20476;-73
2022/08/25 06:41:53;;;;;;;14.27;11.87;;;32.90;86.30;;;;;;4995330;28;20462;-73
2022/08/25 06:44:22;;;;;;;11.07;9.20;;;32.90;84.40;;;;;;4995355;28;20488;-72
2022/08/25 06:46:49;;;;;;;9.87;8.90;;;33.00;83.20;;;;;;4996385;28;20443;-72
2022/08/25 06:49:17;;;;;;;14.47;9.60;;;33.30;82.80;;;;;;4991815;28;20524;-72
2022/08/25 06:51:45;;;;;;;11.63;10.43;;;33.00;83.20;;;;;;5003082;28;20448;-73
2022/08/25 06:54:12;;;;;;;13.00;9.43;;;33.40;82.60;;;;;;5001118;28;20548;-72
2022/08/25 06:56:40;;;;;;;11.80;10.67;;;33.80;81.60;;;;;;4991970;28;20440;-72
2022/08/25 06:59:08;;;;;;;10.80;9.90;;;34.30;79.60;;;;;;4999401;28;20483;-72
2022/08/25 07:01:35;;;;;;;11.30;9.27;;;34.70;78.80;;;;;;4995099;28;20858;-73
2022/08/25 07:04:05;;;;;;;13.40;10.37;;;35.00;78.10;;;;;;4987874;28;20500;-73
2022/08/25 07:06:35;;;;;;;11.37;9.90;;;35.30;76.70;;;;;;5007373;28;20437;-71
2022/08/25 07:09:06;;;;;;;10.53;9.53;;;35.40;76.40;;;;;;5004732;28;20446;-73
2022/08/25 07:11:33;;;;;;;14.47;9.53;;;35.60;75.30;;;;;;4997164;28;20588;-71
2022/08/25 07:14:01;;;;;;;11.07;10.03;;;35.60;74.50;;;;;;5006044;28;20499;-72
2022/08/25 07:16:30;;;;;;;9.63;8.77;;;35.70;74.50;;;;;;4999265;28;20442;-73
2022/08/25 07:18:57;;;;;;;11.57;10.37;;;36.00;73.90;;;;;;4991909;28;20484;-74
2022/08/25 07:21:26;;;;;;;10.43;9.30;;;36.50;72.70;;;;;;4986188;28;20456;-72
2022/08/25 07:23:53;;;;;;;9.97;8.87;;;36.60;72.00;;;;;;4991643;28;20894;-72
2022/08/25 07:26:25;;;;;;;9.70;8.80;;;36.80;71.60;;;;;;4993748;28;20452;-72
2022/08/25 07:28:52;;;;;;;10.47;9.57;;;37.10;70.80;;;;;;4991870;28;20885;-73
2022/08/25 07:31:19;;;;;;;10.00;9.07;;;36.90;70.20;;;;;;4990536;28;20447;-73
2022/08/25 07:36:26;;;;;;;10.50;9.40;;;36.90;70.10;;;;;;4995804;28;20518;-72
2022/08/25 07:38:54;;;;;;;11.57;10.33;;;36.60;70.90;;;;;;4993952;28;20503;-72
2022/08/25 07:41:22;;;;;;;15.90;10.50;;;36.90;70.00;;;;;;4995042;28;20871;-72
2022/08/25 07:43:49;;;;;;;11.50;9.57;;;37.70;69.50;;;;;;4999733;28;20808;-72
2022/08/25 07:46:18;;;;;;;10.20;9.30;;;37.80;68.30;;;;;;4997071;28;20479;-71
2022/08/25 07:48:45;;;;;;;13.40;9.47;;;37.90;68.10;;;;;;5004312;28;20844;-72
2022/08/25 07:51:14;;;;;;;10.10;9.17;;;37.60;67.80;;;;;;4999200;28;20523;-73
2022/08/25 07:53:41;;;;;;;14.60;9.50;;;37.90;68.00;;;;;;5001391;28;20517;-72
2022/08/25 07:56:11;;;;;;;9.77;8.77;;;38.10;67.30;;;;;;4999666;28;20520;-72
2022/08/25 07:58:40;;;;;;;13.20;9.80;;;38.90;66.00;;;;;;5002476;28;21009;-71
2022/08/25 08:01:14;;;;;;;12.27;9.40;;;39.30;65.20;;;;;;5007938;28;20531;-73
2022/08/25 08:03:41;;;;;;;9.47;8.00;;;39.50;63.90;;;;;;5020047;28;20494;-72
2022/08/25 08:06:10;;;;;;;10.90;7.80;;;39.80;62.70;;;;;;5010594;28;20518;-72
2022/08/25 08:08:37;;;;;;;11.57;9.40;;;40.20;61.60;;;;;;4997675;28;20473;-73
2022/08/25 08:11:05;;;;;;;10.33;8.47;;;40.40;61.10;;;;;;4999274;28;20444;-73
2022/08/25 08:13:32;;;;;;;9.20;8.30;;;40.30;60.50;;;;;;4982056;28;20465;-72
2022/08/25 08:16:02;;;;;;;9.50;8.50;;;40.50;60.10;;;;;;5005172;28;20475;-72
2022/08/25 08:18:29;;;;;;;12.83;10.03;;;39.90;59.90;;;;;;5000313;28;20492;-73
2022/08/25 08:20:56;;;;;;;11.70;9.30;;;39.00;61.50;;;;;;4998857;28;20435;-72
2022/08/25 08:23:26;;;;;;;9.30;8.40;;;38.40;63.10;;;;;;4992071;28;20471;-72
2022/08/25 08:25:56;;;;;;;9.07;7.80;;;38.20;63.60;;;;;;5004795;28;20439;-72
2022/08/25 08:28:26;;;;;;;9.80;8.90;;;37.70;64.70;;;;;;4989912;28;20456;-73
2022/08/25 08:30:53;;;;;;;9.00;8.20;;;38.20;64.20;;;;;;5000321;28;20440;-72
2022/08/25 08:33:23;;;;;;;14.33;7.97;;;38.40;63.80;;;;;;4987145;28;20551;-72
2022/08/25 08:35:56;;;;;;;10.90;7.90;;;38.50;63.30;;;;;;4993246;28;20524;-71
2022/08/25 08:38:23;;;;;;;11.53;7.97;;;37.70;63.40;;;;;;4995439;28;20472;-72
2022/08/25 08:43:45;;;;;;;11.53;8.70;;;38.20;63.70;;;;;;4963381;28;20437;-70
2022/08/25 08:46:12;;;;;;;11.93;9.90;;;38.50;63.20;;;;;;4996491;28;20444;-72
2022/08/25 08:49:01;;;;;;;12.27;8.40;;;39.30;62.00;;;;;;5000596;28;20460;-72
2022/08/25 08:51:32;;;;;;;10.00;9.10;;;39.80;60.30;;;;;;5002998;28;20503;-72
2022/08/25 08:54:08;;;;;;;10.53;8.93;;;39.40;60.60;;;;;;4992914;28;20496;-72
2022/08/25 08:56:39;;;;;;;10.10;9.10;;;38.80;61.50;;;;;;4995570;28;20510;-73
2022/08/25 08:59:11;;;;;;;8.30;7.30;;;38.60;61.20;;;;;;5002127;28;20476;-71
2022/08/25 09:01:47;;;;;;;11.00;8.00;;;38.70;62.20;;;;;;5003024;28;20448;-69
2022/08/25 09:04:20;;;;;;;9.80;8.77;;;38.80;61.80;;;;;;5005350;28;20506;-69
2022/08/25 09:06:49;;;;;;;10.60;9.60;;;38.90;61.60;;;;;;5004075;28;20869;-71
2022/08/25 09:09:21;;;;;;;10.27;7.80;;;39.00;60.70;;;;;;5005729;28;20468;-71
2022/08/25 09:12:06;;;;;;;11.80;8.73;;;38.80;60.90;;;;;;4998079;28;20483;-70
2022/08/25 09:14:47;;;;;;;8.30;7.10;;;39.60;60.00;;;;;;4997679;28;20457;-72
2022/08/25 09:17:21;;;;;;;11.47;7.90;;;39.60;60.00;;;;;;5001147;28;20535;-72
2022/08/25 09:20:23;;;;;;;11.90;8.27;;;39.70;59.40;;;;;;4997891;28;20471;-72
2022/08/25 09:22:56;;;;;;;8.90;8.10;;;39.60;59.60;;;;;;4996007;28;20468;-72
2022/08/25 09:25:34;;;;;;;10.03;9.10;;;39.50;59.10;;;;;;4992239;28;20526;-70
2022/08/25 09:28:07;;;;;;;9.53;8.63;;;39.40;59.20;;;;;;5007098;28;20446;-72
2022/08/25 09:30:45;;;;;;;9.90;7.37;;;39.00;59.80;;;;;;5002160;28;20449;-71
2022/08/25 09:33:17;;;;;;;11.33;10.13;;;39.00;59.90;;;;;;4993423;28;20497;-72
2022/08/25 09:35:47;;;;;;;9.27;8.37;;;38.90;59.90;;;;;;4991762;28;20440;-71
2022/08/25 09:38:14;;;;;;;8.10;7.40;;;38.70;60.70;;;;;;4994373;28;20916;-72
2022/08/25 09:40:44;;;;;;;7.93;7.13;;;38.70;60.30;;;;;;4994034;28;20461;-73
2022/08/25 09:43:21;;;;;;;8.77;7.97;;;38.90;60.10;;;;;;4992096;28;20493;-73
2022/08/25 09:45:50;;;;;;;9.93;7.60;;;38.70;59.60;;;;;;4995983;28;20523;-73
2022/08/25 09:48:24;;;;;;;10.20;8.73;;;38.40;60.10;;;;;;4994974;28;21285;-72
2022/08/25 09:50:58;;;;;;;11.13;8.90;;;37.60;61.50;;;;;;4996972;28;20440;-72
2022/08/25 09:53:26;;;;;;;9.27;7.70;;;37.40;62.80;;;;;;4989529;28;20565;-72
2022/08/25 09:55:59;;;;;;;9.07;8.27;;;37.70;62.20;;;;;;4996258;28;20442;-73
2022/08/25 09:58:27;;;;;;;9.53;7.47;;;36.80;60.70;;;;;;5005724;28;20444;-72
2022/08/25 10:01:13;;;;;;;9.93;6.50;;;36.70;61.10;;;;;;5001633;28;20481;-73
2022/08/25 10:03:56;;;;;;;7.77;6.73;;;36.50;61.90;;;;;;4999649;28;20463;-74
2022/08/25 10:06:26;;;;;;;9.50;6.97;;;35.90;61.90;;;;;;5000886;28;20490;-74
2022/08/25 10:08:57;;;;;;;10.47;7.40;;;35.80;63.80;;;;;;4991929;28;20577;-72
2022/08/25 10:11:38;;;;;;;7.30;6.67;;;36.50;62.80;;;;;;4999346;28;20756;-73
2022/08/25 10:14:20;;;;;;;7.03;5.63;;;36.60;60.90;;;;;;4993194;28;20479;-73
2022/08/25 10:16:48;;;;;;;8.70;7.43;;;36.70;59.60;;;;;;4990913;28;20515;-70
2022/08/25 10:19:25;;;;;;;7.57;6.67;;;36.90;59.80;;;;;;4994439;28;20575;-72
2022/08/25 10:22:09;;;;;;;11.27;7.77;;;36.80;60.00;;;;;;4988541;28;20433;-73
2022/08/25 10:24:37;;;;;;;8.47;6.63;;;36.50;60.90;;;;;;5001216;28;20467;-71
2022/08/25 10:27:14;;;;;;;7.93;6.77;;;36.30;61.00;;;;;;5000919;28;20445;-72
2022/08/25 10:30:04;;;;;;;7.57;6.90;;;36.60;60.80;;;;;;4965619;28;1150447;-71
2022/08/25 10:32:49;;;;;;;8.83;7.57;;;36.60;60.90;;;;;;5013823;28;20785;-70
2022/08/25 10:35:20;;;;;;;7.50;6.80;;;36.30;60.30;;;;;;5005586;28;20437;-72
2022/08/25 10:38:03;;;;;;;9.20;7.47;;;35.00;62.00;;;;;;4986176;28;20516;-71
2022/08/25 10:40:36;;;;;;;8.37;7.03;;;33.70;65.90;;;;;;4994551;28;20500;-73
2022/08/25 10:43:06;;;;;;;7.33;6.63;;;33.20;67.60;;;;;;4996650;28;20539;-74
2022/08/25 10:45:43;;;;;;;7.13;6.10;;;32.80;68.40;;;;;;4997333;28;20448;-71
2022/08/25 10:48:40;;;;;;;6.93;6.23;;;32.30;69.10;;;;;;4983527;28;20490;-72
2022/08/25 10:51:18;;;;;;;9.30;7.20;;;31.80;71.30;;;;;;4994482;28;20503;-69
2022/08/25 10:53:55;;;;;;;7.60;6.40;;;31.80;71.90;;;;;;4997007;28;20794;-72
2022/08/25 10:56:27;;;;;;;9.37;6.63;;;31.70;71.90;;;;;;4992626;28;20460;-72
2022/08/25 10:59:07;;;;;;;7.60;5.87;;;31.30;72.50;;;;;;4990593;28;20927;-71
2022/08/25 11:01:49;;;;;;;12.50;7.10;;;31.30;72.80;;;;;;4996513;28;20448;-72
2022/08/25 11:04:24;;;;;;;10.03;7.43;;;31.40;73.80;;;;;;5000483;28;20793;-73
2022/08/25 11:06:57;;;;;;;8.50;7.17;;;31.40;74.90;;;;;;4989822;28;20500;-73
2022/08/25 11:09:32;;;;;;;9.10;6.70;;;31.60;74.80;;;;;;4985527;28;20446;-72
2022/08/25 11:12:04;;;;;;;10.37;6.33;;;32.20;73.70;;;;;;5000173;28;20552;-72
2022/08/25 11:14:35;;;;;;;8.00;6.20;;;32.50;72.70;;;;;;4995877;28;20543;-73
2022/08/25 11:17:07;;;;;;;8.43;5.80;;;32.40;72.70;;;;;;5003199;28;20966;-71
2022/08/25 11:19:38;;;;;;;7.37;6.10;;;32.40;71.50;;;;;;5010887;28;21069;-73
2022/08/25 11:22:14;;;;;;;6.53;5.90;;;32.40;70.60;;;;;;4993412;28;20434;-73
2022/08/25 11:24:52;;;;;;;7.80;6.13;;;32.40;69.80;;;;;;4998253;28;20451;-73
2022/08/25 11:27:23;;;;;;;6.90;6.30;;;32.30;68.80;;;;;;5000305;28;20939;-73
2022/08/25 11:30:00;;;;;;;7.93;6.73;;;32.00;69.30;;;;;;4998123;28;20510;-72
2022/08/25 11:32:32;;;;;;;7.77;6.90;;;31.60;70.30;;;;;;5003713;28;20516;-72
2022/08/25 11:35:01;;;;;;;7.73;6.07;;;31.50;70.80;;;;;;4997461;28;21008;-73
2022/08/25 11:37:31;;;;;;;10.20;6.90;;;31.30;71.80;;;;;;4991612;28;20503;-70
2022/08/25 11:40:28;;;;;;;9.03;6.73;;;31.30;72.70;;;;;;5008508;28;20902;-71
2022/08/25 11:43:21;;;;;;;9.10;6.43;;;31.40;72.60;;;;;;5001394;28;20443;-73
2022/08/25 11:46:01;;;;;;;11.07;7.07;;;31.10;73.60;;;;;;4998756;28;20420;-73
2022/08/25 11:48:38;;;;;;;10.93;6.87;;;31.20;73.60;;;;;;4989512;28;20441;-72
2022/08/25 11:51:07;;;;;;;8.40;7.27;;;31.20;73.40;;;;;;5002394;28;20436;-71
2022/08/25 11:53:36;;;;;;;8.67;7.07;;;31.50;72.00;;;;;;5007573;28;20465;-72
2022/08/25 11:56:08;;;;;;;8.37;7.17;;;31.50;72.90;;;;;;5004077;28;20532;-73
2022/08/25 11:58:41;;;;;;;11.83;7.40;;;31.40;73.20;;;;;;5004114;28;20445;-71
2022/08/25 12:01:27;;;;;;;9.37;6.17;;;31.30;73.40;;;;;;4994107;28;20484;-73
2022/08/25 12:04:13;;;;;;;9.30;7.17;;;31.30;74.00;;;;;;4992544;28;20472;-71
2022/08/25 12:07:13;;;;;;;8.83;6.90;;;31.50;74.00;;;;;;5002443;28;20431;-72
2022/08/25 12:10:12;;;;;;;7.43;6.70;;;31.80;73.30;;;;;;5005981;28;20436;-72
2022/08/25 12:13:02;;;;;;;7.23;6.57;;;32.10;73.20;;;;;;5013519;28;20432;-73
2022/08/25 12:15:33;;;;;;;14.57;7.20;;;32.20;73.30;;;;;;5009927;28;20842;-72
2022/08/25 12:18:13;;;;;;;10.90;6.70;;;32.20;72.90;;;;;;5014701;28;20435;-72
2022/08/25 12:21:14;;;;;;;10.17;6.10;;;32.40;72.90;;;;;;5008613;28;20487;-71
2022/08/25 12:23:43;;;;;;;9.27;6.37;;;32.50;71.60;;;;;;4984878;28;20465;-72
2022/08/25 12:26:20;;;;;;;7.87;7.00;;;31.80;72.30;;;;;;4994167;28;20532;-72
2022/08/25 12:29:06;;;;;;;11.07;7.30;;;31.90;73.30;;;;;;4999948;28;20773;-71
2022/08/25 12:32:01;;;;;;;9.40;6.90;;;32.00;73.40;;;;;;5006851;28;20483;-73
2022/08/25 12:35:05;;;;;;;9.80;6.53;;;32.10;73.60;;;;;;5002646;28;20825;-72
2022/08/25 12:37:34;;;;;;;14.53;6.90;;;32.20;72.70;;;;;;4985810;28;20457;-72
2022/08/25 12:40:03;;;;;;;8.10;6.40;;;32.20;73.20;;;;;;5005821;28;20518;-72
2022/08/25 12:42:35;;;;;;;7.63;6.20;;;32.30;73.60;;;;;;4999224;28;20507;-72
2022/08/25 12:45:32;;;;;;;8.10;6.40;;;32.00;72.60;;;;;;5007054;28;20495;-72
2022/08/25 12:48:20;;;;;;;10.20;6.80;;;32.00;73.10;;;;;;5002430;28;20526;-72
2022/08/25 12:50:56;;;;;;;9.90;7.40;;;31.80;73.20;;;;;;5005074;28;20532;-73
2022/08/25 12:53:33;;;;;;;8.27;7.50;;;31.80;74.30;;;;;;5008445;28;20524;-71
2022/08/25 12:56:05;;;;;;;8.10;7.00;;;31.80;75.40;;;;;;5017626;28;20454;-73
2022/08/25 12:58:46;;;;;;;10.50;7.10;;;31.70;76.20;;;;;;5022668;28;20444;-72
2022/08/25 13:01:24;;;;;;;8.17;6.77;;;31.60;76.60;;;;;;5005769;28;21117;-73
2022/08/25 13:04:16;;;;;;;8.13;5.60;;;31.60;75.90;;;;;;5007179;28;20606;-72
2022/08/25 13:07:00;;;;;;;7.47;6.40;;;31.40;74.80;;;;;;4997206;28;20439;-73
2022/08/25 13:10:07;;;;;;;11.73;6.90;;;31.40;74.40;;;;;;5005195;28;20976;-70
2022/08/25 13:12:41;;;;;;;8.73;6.50;;;31.60;74.90;;;;;;4997974;28;20961;-72
2022/08/25 13:15:14;;;;;;;7.87;6.17;;;31.60;74.20;;;;;;5004933;28;20443;-73
2022/08/25 13:17:41;;;;;;;8.00;7.20;;;31.50;74.90;;;;;;5012731;28;20973;-71
2022/08/25 13:20:17;;;;;;;8.60;6.60;;;31.60;75.50;;;;;;5008138;28;21042;-71
2022/08/25 13:22:49;;;;;;;9.33;7.30;;;31.60;75.90;;;;;;5000148;28;20502;-73
2022/08/25 13:25:19;;;;;;;9.47;6.90;;;31.60;75.90;;;;;;4998812;28;20789;-71